sensor_id;sensor_type;location;lat;lon;timestamp;P1;durP1;ratioP1;P2;durP2;ratioP2
51529;SDS011;37613;51.788;21.582;2022-07-19T00:01:25;26.00;;;15.40;;
51529;SDS011;37613;51.788;21.582;2022-07-19T00:05:29;20.30;;;12.70;;
51529;SDS011;37613;51.788;21.582;2022-07-19T00:09:31;24.00;;;12.80;;
51529;SDS011;37613;51.788;21.582;2022-07-19T00:13:33;26.30;;;12.60;;
51529;SDS011;37613;51.788;21.582;2022-07-19T00:17:38;22.60;;;12.10;;
51529;SDS011;37613;51.788;21.582;2022-07-19T00:21:45;19.20;;;10.30;;
51529;SDS011;37613;51.788;21.582;2022-07-19T00:25:51;19.60;;;11.10;;
51529;SDS011;37613;51.788;21.582;2022-07-19T00:29:52;27.30;;;10.30;;
51529;SDS011;37613;51.788;21.582;2022-07-19T00:33:54;25.90;;;12.00;;
51529;SDS011;37613;51.788;21.582;2022-07-19T00:38:02;21.00;;;10.40;;
51529;SDS011;37613;51.788;21.582;2022-07-19T00:42:06;18.40;;;9.20;;
51529;SDS011;37613;51.788;21.582;2022-07-19T00:46:15;17.50;;;10.00;;
51529;SDS011;37613;51.788;21.582;2022-07-19T00:50:19;13.90;;;8.50;;
51529;SDS011;37613;51.788;21.582;2022-07-19T00:54:21;16.30;;;9.20;;
51529;SDS011;37613;51.788;21.582;2022-07-19T00:58:25;18.30;;;7.80;;
51529;SDS011;37613;51.788;21.582;2022-07-19T01:02:28;14.60;;;6.90;;
51529;SDS011;37613;51.788;21.582;2022-07-19T01:06:33;14.50;;;6.30;;
51529;SDS011;37613;51.788;21.582;2022-07-19T01:10:35;14.10;;;6.10;;
51529;SDS011;37613;51.788;21.582;2022-07-19T01:14:37;13.30;;;6.60;;
51529;SDS011;37613;51.788;21.582;2022-07-19T01:18:42;13.90;;;6.00;;
51529;SDS011;37613;51.788;21.582;2022-07-19T01:22:44;11.90;;;5.50;;
51529;SDS011;37613;51.788;21.582;2022-07-19T01:26:47;11.10;;;5.90;;
51529;SDS011;37613;51.788;21.582;2022-07-19T01:30:49;8.00;;;4.90;;
51529;SDS011;37613;51.788;21.582;2022-07-19T01:34:52;9.90;;;5.60;;
51529;SDS011;37613;51.788;21.582;2022-07-19T01:38:54;12.90;;;5.70;;
51529;SDS011;37613;51.788;21.582;2022-07-19T01:42:55;7.00;;;5.00;;
51529;SDS011;37613;51.788;21.582;2022-07-19T01:46:57;8.20;;;5.50;;
51529;SDS011;37613;51.788;21.582;2022-07-19T01:51:03;11.00;;;6.40;;
51529;SDS011;37613;51.788;21.582;2022-07-19T01:55:05;8.10;;;5.40;;
51529;SDS011;37613;51.788;21.582;2022-07-19T01:59:07;8.90;;;5.10;;
51529;SDS011;37613;51.788;21.582;2022-07-19T02:03:09;10.80;;;4.80;;
51529;SDS011;37613;51.788;21.582;2022-07-19T02:07:11;14.50;;;4.90;;
51529;SDS011;37613;51.788;21.582;2022-07-19T02:11:13;10.20;;;4.80;;
51529;SDS011;37613;51.788;21.582;2022-07-19T02:15:33;9.90;;;5.60;;
51529;SDS011;37613;51.788;21.582;2022-07-19T02:19:35;12.40;;;6.60;;
51529;SDS011;37613;51.788;21.582;2022-07-19T02:23:37;8.20;;;5.60;;
51529;SDS011;37613;51.788;21.582;2022-07-19T02:27:42;11.00;;;6.30;;
51529;SDS011;37613;51.788;21.582;2022-07-19T02:31:44;12.70;;;7.50;;
51529;SDS011;37613;51.788;21.582;2022-07-19T02:35:45;8.30;;;6.10;;
51529;SDS011;37613;51.788;21.582;2022-07-19T02:39:47;11.80;;;6.90;;
51529;SDS011;37613;51.788;21.582;2022-07-19T02:43:49;9.30;;;5.70;;
51529;SDS011;37613;51.788;21.582;2022-07-19T02:47:51;7.30;;;5.50;;
51529;SDS011;37613;51.788;21.582;2022-07-19T02:51:53;9.60;;;6.60;;
51529;SDS011;37613;51.788;21.582;2022-07-19T02:55:54;10.80;;;7.00;;
51529;SDS011;37613;51.788;21.582;2022-07-19T02:59:56;12.40;;;7.60;;
51529;SDS011;37613;51.788;21.582;2022-07-19T03:03:58;12.90;;;7.20;;
51529;SDS011;37613;51.788;21.582;2022-07-19T03:08:01;14.40;;;5.90;;
51529;SDS011;37613;51.788;21.582;2022-07-19T03:12:03;11.80;;;6.00;;
51529;SDS011;37613;51.788;21.582;2022-07-19T03:16:05;13.60;;;6.40;;
51529;SDS011;37613;51.788;21.582;2022-07-19T03:20:08;14.90;;;6.50;;
51529;SDS011;37613;51.788;21.582;2022-07-19T03:24:11;17.70;;;7.30;;
51529;SDS011;37613;51.788;21.582;2022-07-19T03:28:13;10.20;;;5.90;;
51529;SDS011;37613;51.788;21.582;2022-07-19T03:32:14;22.40;;;6.60;;
51529;SDS011;37613;51.788;21.582;2022-07-19T03:40:49;12.80;;;7.00;;
51529;SDS011;37613;51.788;21.582;2022-07-19T03:44:51;7.60;;;5.40;;
51529;SDS011;37613;51.788;21.582;2022-07-19T03:48:53;8.00;;;5.50;;
51529;SDS011;37613;51.788;21.582;2022-07-19T03:52:56;9.40;;;6.20;;
51529;SDS011;37613;51.788;21.582;2022-07-19T03:56:58;11.00;;;6.40;;
51529;SDS011;37613;51.788;21.582;2022-07-19T04:01:00;8.40;;;6.50;;
51529;SDS011;37613;51.788;21.582;2022-07-19T04:05:01;11.70;;;5.70;;
51529;SDS011;37613;51.788;21.582;2022-07-19T04:09:03;10.60;;;6.00;;
51529;SDS011;37613;51.788;21.582;2022-07-19T04:13:05;9.20;;;6.40;;
51529;SDS011;37613;51.788;21.582;2022-07-19T04:17:07;12.80;;;6.20;;
51529;SDS011;37613;51.788;21.582;2022-07-19T04:21:12;6.60;;;5.30;;
51529;SDS011;37613;51.788;21.582;2022-07-19T04:25:14;9.20;;;4.80;;
51529;SDS011;37613;51.788;21.582;2022-07-19T04:29:16;6.60;;;4.60;;
51529;SDS011;37613;51.788;21.582;2022-07-19T04:33:21;8.20;;;4.30;;
51529;SDS011;37613;51.788;21.582;2022-07-19T04:37:23;6.40;;;4.20;;
51529;SDS011;37613;51.788;21.582;2022-07-19T04:41:26;9.10;;;4.50;;
51529;SDS011;37613;51.788;21.582;2022-07-19T04:45:28;7.10;;;4.60;;
51529;SDS011;37613;51.788;21.582;2022-07-19T04:49:30;7.40;;;4.70;;
51529;SDS011;37613;51.788;21.582;2022-07-19T04:53:32;6.00;;;4.30;;
51529;SDS011;37613;51.788;21.582;2022-07-19T04:57:34;14.60;;;4.60;;
51529;SDS011;37613;51.788;21.582;2022-07-19T05:01:37;8.00;;;4.40;;
51529;SDS011;37613;51.788;21.582;2022-07-19T05:05:38;7.70;;;4.40;;
51529;SDS011;37613;51.788;21.582;2022-07-19T05:09:40;8.60;;;4.20;;
51529;SDS011;37613;51.788;21.582;2022-07-19T05:13:42;7.70;;;4.90;;
51529;SDS011;37613;51.788;21.582;2022-07-19T05:17:44;5.40;;;4.40;;
51529;SDS011;37613;51.788;21.582;2022-07-19T05:21:46;5.40;;;3.90;;
51529;SDS011;37613;51.788;21.582;2022-07-19T05:25:48;5.60;;;4.30;;
51529;SDS011;37613;51.788;21.582;2022-07-19T05:29:49;12.70;;;6.90;;
51529;SDS011;37613;51.788;21.582;2022-07-19T05:33:51;11.30;;;6.70;;
51529;SDS011;37613;51.788;21.582;2022-07-19T05:37:53;31.80;;;17.10;;
51529;SDS011;37613;51.788;21.582;2022-07-19T05:41:55;10.70;;;5.30;;
51529;SDS011;37613;51.788;21.582;2022-07-19T05:46:00;10.10;;;5.30;;
51529;SDS011;37613;51.788;21.582;2022-07-19T05:50:02;7.00;;;4.10;;
51529;SDS011;37613;51.788;21.582;2022-07-19T05:58:10;17.80;;;8.60;;
51529;SDS011;37613;51.788;21.582;2022-07-19T06:02:12;14.60;;;9.00;;
51529;SDS011;37613;51.788;21.582;2022-07-19T06:06:14;12.40;;;5.30;;
51529;SDS011;37613;51.788;21.582;2022-07-19T06:10:17;9.20;;;4.60;;
51529;SDS011;37613;51.788;21.582;2022-07-19T06:14:19;10.10;;;3.90;;
51529;SDS011;37613;51.788;21.582;2022-07-19T06:18:20;7.90;;;4.30;;
51529;SDS011;37613;51.788;21.582;2022-07-19T06:22:22;9.30;;;5.30;;
51529;SDS011;37613;51.788;21.582;2022-07-19T06:26:24;26.00;;;12.90;;
51529;SDS011;37613;51.788;21.582;2022-07-19T06:30:27;20.50;;;11.90;;
51529;SDS011;37613;51.788;21.582;2022-07-19T06:34:29;41.00;;;21.50;;
51529;SDS011;37613;51.788;21.582;2022-07-19T06:38:31;53.70;;;29.40;;
51529;SDS011;37613;51.788;21.582;2022-07-19T06:42:33;18.80;;;12.20;;
51529;SDS011;37613;51.788;21.582;2022-07-19T06:46:35;10.90;;;6.00;;
51529;SDS011;37613;51.788;21.582;2022-07-19T06:50:37;13.40;;;7.50;;
51529;SDS011;37613;51.788;21.582;2022-07-19T06:54:39;7.40;;;5.10;;
51529;SDS011;37613;51.788;21.582;2022-07-19T06:58:40;10.10;;;5.60;;
51529;SDS011;37613;51.788;21.582;2022-07-19T07:02:42;7.10;;;4.00;;
51529;SDS011;37613;51.788;21.582;2022-07-19T07:06:44;5.20;;;3.90;;
51529;SDS011;37613;51.788;21.582;2022-07-19T07:10:46;14.50;;;4.20;;
51529;SDS011;37613;51.788;21.582;2022-07-19T07:14:48;6.60;;;3.50;;
51529;SDS011;37613;51.788;21.582;2022-07-19T07:18:49;4.50;;;3.10;;
51529;SDS011;37613;51.788;21.582;2022-07-19T07:22:51;4.00;;;3.20;;
51529;SDS011;37613;51.788;21.582;2022-07-19T07:26:53;5.50;;;3.20;;
51529;SDS011;37613;51.788;21.582;2022-07-19T07:30:55;8.80;;;3.50;;
51529;SDS011;37613;51.788;21.582;2022-07-19T07:34:57;6.40;;;3.30;;
51529;SDS011;37613;51.788;21.582;2022-07-19T07:38:59;4.10;;;3.70;;
51529;SDS011;37613;51.788;21.582;2022-07-19T07:43:01;3.90;;;3.00;;
51529;SDS011;37613;51.788;21.582;2022-07-19T07:51:05;3.80;;;2.90;;
51529;SDS011;37613;51.788;21.582;2022-07-19T07:55:07;5.50;;;3.60;;
51529;SDS011;37613;51.788;21.582;2022-07-19T08:03:11;4.80;;;3.10;;
51529;SDS011;37613;51.788;21.582;2022-07-19T08:07:13;4.60;;;3.30;;
51529;SDS011;37613;51.788;21.582;2022-07-19T08:11:15;6.00;;;3.50;;
51529;SDS011;37613;51.788;21.582;2022-07-19T08:15:17;5.00;;;3.20;;
51529;SDS011;37613;51.788;21.582;2022-07-19T08:19:20;5.70;;;3.40;;
51529;SDS011;37613;51.788;21.582;2022-07-19T08:23:22;5.30;;;3.70;;
51529;SDS011;37613;51.788;21.582;2022-07-19T08:27:23;4.50;;;3.00;;
51529;SDS011;37613;51.788;21.582;2022-07-19T08:31:25;3.50;;;3.10;;
51529;SDS011;37613;51.788;21.582;2022-07-19T08:35:27;4.80;;;2.40;;
51529;SDS011;37613;51.788;21.582;2022-07-19T08:39:32;3.10;;;2.50;;
51529;SDS011;37613;51.788;21.582;2022-07-19T08:43:33;4.10;;;2.90;;
51529;SDS011;37613;51.788;21.582;2022-07-19T08:47:36;7.40;;;2.70;;
51529;SDS011;37613;51.788;21.582;2022-07-19T08:51:39;3.10;;;2.70;;
51529;SDS011;37613;51.788;21.582;2022-07-19T08:55:43;6.30;;;2.90;;
51529;SDS011;37613;51.788;21.582;2022-07-19T08:59:45;5.60;;;3.00;;
51529;SDS011;37613;51.788;21.582;2022-07-19T09:12:14;3.80;;;2.70;;
51529;SDS011;37613;51.788;21.582;2022-07-19T09:16:16;7.20;;;2.80;;
51529;SDS011;37613;51.788;21.582;2022-07-19T09:20:25;5.00;;;2.40;;
51529;SDS011;37613;51.788;21.582;2022-07-19T09:24:29;4.80;;;2.80;;
51529;SDS011;37613;51.788;21.582;2022-07-19T09:28:33;5.30;;;2.60;;
51529;SDS011;37613;51.788;21.582;2022-07-19T09:32:37;6.20;;;2.60;;
51529;SDS011;37613;51.788;21.582;2022-07-19T09:36:38;3.40;;;2.90;;
51529;SDS011;37613;51.788;21.582;2022-07-19T09:40:40;4.40;;;2.80;;
51529;SDS011;37613;51.788;21.582;2022-07-19T09:44:43;6.60;;;2.90;;
51529;SDS011;37613;51.788;21.582;2022-07-19T09:48:47;3.70;;;2.80;;
51529;SDS011;37613;51.788;21.582;2022-07-19T09:52:49;9.60;;;2.70;;
51529;SDS011;37613;51.788;21.582;2022-07-19T09:56:53;5.20;;;2.70;;
51529;SDS011;37613;51.788;21.582;2022-07-19T10:00:56;5.20;;;2.90;;
51529;SDS011;37613;51.788;21.582;2022-07-19T10:05:04;3.60;;;2.40;;
51529;SDS011;37613;51.788;21.582;2022-07-19T10:09:08;5.40;;;2.90;;
51529;SDS011;37613;51.788;21.582;2022-07-19T10:13:12;3.50;;;2.70;;
51529;SDS011;37613;51.788;21.582;2022-07-19T10:17:20;4.20;;;2.80;;
51529;SDS011;37613;51.788;21.582;2022-07-19T10:21:38;5.20;;;2.60;;
51529;SDS011;37613;51.788;21.582;2022-07-19T10:25:45;3.20;;;2.60;;
51529;SDS011;37613;51.788;21.582;2022-07-19T10:29:48;11.20;;;2.60;;
51529;SDS011;37613;51.788;21.582;2022-07-19T10:33:58;3.10;;;2.40;;
51529;SDS011;37613;51.788;21.582;2022-07-19T10:46:24;5.20;;;2.80;;
51529;SDS011;37613;51.788;21.582;2022-07-19T10:50:48;5.70;;;2.30;;
51529;SDS011;37613;51.788;21.582;2022-07-19T10:59:29;4.10;;;2.40;;
51529;SDS011;37613;51.788;21.582;2022-07-19T11:03:42;3.80;;;2.10;;
51529;SDS011;37613;51.788;21.582;2022-07-19T11:11:50;3.20;;;2.20;;
51529;SDS011;37613;51.788;21.582;2022-07-19T11:15:55;4.30;;;3.10;;
51529;SDS011;37613;51.788;21.582;2022-07-19T11:20:01;1.80;;;1.70;;
51529;SDS011;37613;51.788;21.582;2022-07-19T11:24:04;1.70;;;1.60;;
51529;SDS011;37613;51.788;21.582;2022-07-19T11:28:07;1.70;;;1.40;;
51529;SDS011;37613;51.788;21.582;2022-07-19T11:32:24;2.30;;;1.90;;
51529;SDS011;37613;51.788;21.582;2022-07-19T11:36:26;3.50;;;1.70;;
51529;SDS011;37613;51.788;21.582;2022-07-19T11:40:33;4.50;;;1.80;;
51529;SDS011;37613;51.788;21.582;2022-07-19T11:44:38;4.80;;;1.70;;
51529;SDS011;37613;51.788;21.582;2022-07-19T11:52:45;3.20;;;2.30;;
51529;SDS011;37613;51.788;21.582;2022-07-19T11:56:52;2.90;;;2.20;;
51529;SDS011;37613;51.788;21.582;2022-07-19T12:05:08;2.90;;;2.10;;
51529;SDS011;37613;51.788;21.582;2022-07-19T12:09:13;8.50;;;2.30;;
51529;SDS011;37613;51.788;21.582;2022-07-19T12:18:55;2.90;;;2.30;;
51529;SDS011;37613;51.788;21.582;2022-07-19T12:23:15;4.60;;;2.30;;
51529;SDS011;37613;51.788;21.582;2022-07-19T12:27:20;3.10;;;2.40;;
51529;SDS011;37613;51.788;21.582;2022-07-19T12:31:22;2.30;;;2.10;;
51529;SDS011;37613;51.788;21.582;2022-07-19T12:35:24;7.20;;;2.60;;
51529;SDS011;37613;51.788;21.582;2022-07-19T12:39:27;5.70;;;2.30;;
51529;SDS011;37613;51.788;21.582;2022-07-19T12:43:30;5.30;;;2.70;;
51529;SDS011;37613;51.788;21.582;2022-07-19T12:51:34;6.40;;;3.00;;
51529;SDS011;37613;51.788;21.582;2022-07-19T12:59:39;4.00;;;2.10;;
51529;SDS011;37613;51.788;21.582;2022-07-19T13:03:41;3.00;;;2.10;;
51529;SDS011;37613;51.788;21.582;2022-07-19T13:07:43;2.40;;;2.10;;
51529;SDS011;37613;51.788;21.582;2022-07-19T13:11:45;3.70;;;2.70;;
51529;SDS011;37613;51.788;21.582;2022-07-19T13:15:47;5.80;;;2.30;;
51529;SDS011;37613;51.788;21.582;2022-07-19T13:19:49;2.80;;;2.40;;
51529;SDS011;37613;51.788;21.582;2022-07-19T13:27:52;3.00;;;2.30;;
51529;SDS011;37613;51.788;21.582;2022-07-19T13:31:55;4.20;;;3.10;;
51529;SDS011;37613;51.788;21.582;2022-07-19T13:35:57;2.70;;;2.40;;
51529;SDS011;37613;51.788;21.582;2022-07-19T13:39:58;3.60;;;2.80;;
51529;SDS011;37613;51.788;21.582;2022-07-19T13:44:00;4.00;;;2.70;;
51529;SDS011;37613;51.788;21.582;2022-07-19T13:48:02;3.70;;;2.50;;
51529;SDS011;37613;51.788;21.582;2022-07-19T13:52:05;7.50;;;2.80;;
51529;SDS011;37613;51.788;21.582;2022-07-19T13:56:07;3.90;;;2.70;;
51529;SDS011;37613;51.788;21.582;2022-07-19T14:00:09;4.20;;;2.50;;
51529;SDS011;37613;51.788;21.582;2022-07-19T14:04:11;3.40;;;2.50;;
51529;SDS011;37613;51.788;21.582;2022-07-19T14:08:14;4.20;;;2.70;;
51529;SDS011;37613;51.788;21.582;2022-07-19T14:12:17;5.90;;;2.20;;
51529;SDS011;37613;51.788;21.582;2022-07-19T14:16:20;3.60;;;2.80;;
51529;SDS011;37613;51.788;21.582;2022-07-19T14:20:25;3.10;;;2.80;;
51529;SDS011;37613;51.788;21.582;2022-07-19T14:24:28;3.30;;;2.70;;
51529;SDS011;37613;51.788;21.582;2022-07-19T14:32:31;7.00;;;3.10;;
51529;SDS011;37613;51.788;21.582;2022-07-19T14:36:33;2.80;;;2.50;;
51529;SDS011;37613;51.788;21.582;2022-07-19T14:40:35;7.10;;;2.90;;
51529;SDS011;37613;51.788;21.582;2022-07-19T14:44:37;6.10;;;2.40;;
51529;SDS011;37613;51.788;21.582;2022-07-19T14:48:42;5.70;;;2.60;;
51529;SDS011;37613;51.788;21.582;2022-07-19T14:52:44;3.00;;;2.40;;
51529;SDS011;37613;51.788;21.582;2022-07-19T14:56:46;4.40;;;2.60;;
51529;SDS011;37613;51.788;21.582;2022-07-19T15:04:50;6.40;;;2.70;;
51529;SDS011;37613;51.788;21.582;2022-07-19T15:08:52;5.60;;;2.70;;
51529;SDS011;37613;51.788;21.582;2022-07-19T15:12:56;5.90;;;2.70;;
51529;SDS011;37613;51.788;21.582;2022-07-19T15:16:59;3.20;;;2.30;;
51529;SDS011;37613;51.788;21.582;2022-07-19T15:21:02;3.50;;;2.80;;
51529;SDS011;37613;51.788;21.582;2022-07-19T15:25:05;2.80;;;2.50;;
51529;SDS011;37613;51.788;21.582;2022-07-19T15:29:08;3.70;;;2.60;;
51529;SDS011;37613;51.788;21.582;2022-07-19T15:33:10;4.00;;;2.90;;
51529;SDS011;37613;51.788;21.582;2022-07-19T15:37:12;5.10;;;2.90;;
51529;SDS011;37613;51.788;21.582;2022-07-19T15:45:16;14.30;;;7.90;;
51529;SDS011;37613;51.788;21.582;2022-07-19T15:49:19;7.90;;;3.80;;
51529;SDS011;37613;51.788;21.582;2022-07-19T15:53:21;8.10;;;4.80;;
51529;SDS011;37613;51.788;21.582;2022-07-19T16:01:24;4.10;;;2.70;;
51529;SDS011;37613;51.788;21.582;2022-07-19T16:05:26;8.60;;;3.90;;
51529;SDS011;37613;51.788;21.582;2022-07-19T16:09:28;8.30;;;4.00;;
51529;SDS011;37613;51.788;21.582;2022-07-19T16:17:32;8.20;;;3.30;;
51529;SDS011;37613;51.788;21.582;2022-07-19T16:21:34;6.20;;;2.70;;
51529;SDS011;37613;51.788;21.582;2022-07-19T16:29:37;12.20;;;7.10;;
51529;SDS011;37613;51.788;21.582;2022-07-19T16:37:41;23.30;;;15.10;;
51529;SDS011;37613;51.788;21.582;2022-07-19T16:41:43;27.40;;;18.40;;
51529;SDS011;37613;51.788;21.582;2022-07-19T16:45:45;8.10;;;4.90;;
51529;SDS011;37613;51.788;21.582;2022-07-19T16:53:50;13.00;;;7.30;;
51529;SDS011;37613;51.788;21.582;2022-07-19T16:57:52;6.80;;;5.20;;
51529;SDS011;37613;51.788;21.582;2022-07-19T17:01:53;20.70;;;12.70;;
51529;SDS011;37613;51.788;21.582;2022-07-19T17:05:55;9.90;;;6.10;;
51529;SDS011;37613;51.788;21.582;2022-07-19T17:13:59;7.70;;;4.80;;
51529;SDS011;37613;51.788;21.582;2022-07-19T17:18:01;8.40;;;4.30;;
51529;SDS011;37613;51.788;21.582;2022-07-19T17:22:03;10.60;;;5.30;;
51529;SDS011;37613;51.788;21.582;2022-07-19T17:30:07;10.80;;;3.00;;
51529;SDS011;37613;51.788;21.582;2022-07-19T17:34:09;5.60;;;3.30;;
51529;SDS011;37613;51.788;21.582;2022-07-19T17:38:12;3.90;;;2.80;;
51529;SDS011;37613;51.788;21.582;2022-07-19T17:42:15;3.50;;;2.80;;
51529;SDS011;37613;51.788;21.582;2022-07-19T17:46:17;3.20;;;2.80;;
51529;SDS011;37613;51.788;21.582;2022-07-19T17:50:19;4.40;;;3.40;;
51529;SDS011;37613;51.788;21.582;2022-07-19T17:54:21;3.90;;;3.30;;
51529;SDS011;37613;51.788;21.582;2022-07-19T17:58:23;4.40;;;3.20;;
51529;SDS011;37613;51.788;21.582;2022-07-19T18:02:25;8.00;;;3.90;;
51529;SDS011;37613;51.788;21.582;2022-07-19T18:10:29;6.40;;;4.80;;
51529;SDS011;37613;51.788;21.582;2022-07-19T18:14:33;6.70;;;4.60;;
51529;SDS011;37613;51.788;21.582;2022-07-19T18:18:34;10.20;;;5.30;;
51529;SDS011;37613;51.788;21.582;2022-07-19T18:22:37;6.10;;;5.10;;
51529;SDS011;37613;51.788;21.582;2022-07-19T18:26:39;7.10;;;5.40;;
51529;SDS011;37613;51.788;21.582;2022-07-19T18:30:41;8.30;;;4.70;;
51529;SDS011;37613;51.788;21.582;2022-07-19T18:34:43;8.70;;;5.00;;
51529;SDS011;37613;51.788;21.582;2022-07-19T18:38:44;8.90;;;5.50;;
51529;SDS011;37613;51.788;21.582;2022-07-19T18:42:46;12.50;;;4.80;;
51529;SDS011;37613;51.788;21.582;2022-07-19T18:46:48;7.30;;;5.50;;
51529;SDS011;37613;51.788;21.582;2022-07-19T18:50:50;8.00;;;5.60;;
51529;SDS011;37613;51.788;21.582;2022-07-19T18:54:51;7.60;;;4.80;;
51529;SDS011;37613;51.788;21.582;2022-07-19T18:58:54;7.90;;;5.40;;
51529;SDS011;37613;51.788;21.582;2022-07-19T19:02:55;10.60;;;5.10;;
51529;SDS011;37613;51.788;21.582;2022-07-19T19:06:57;12.30;;;6.00;;
51529;SDS011;37613;51.788;21.582;2022-07-19T19:10:59;8.80;;;6.40;;
51529;SDS011;37613;51.788;21.582;2022-07-19T19:15:03;14.00;;;7.80;;
51529;SDS011;37613;51.788;21.582;2022-07-19T19:19:06;13.40;;;8.00;;
51529;SDS011;37613;51.788;21.582;2022-07-19T19:23:08;14.60;;;9.40;;
51529;SDS011;37613;51.788;21.582;2022-07-19T19:27:11;15.50;;;9.40;;
51529;SDS011;37613;51.788;21.582;2022-07-19T19:31:12;12.70;;;9.40;;
51529;SDS011;37613;51.788;21.582;2022-07-19T19:35:14;16.90;;;9.40;;
51529;SDS011;37613;51.788;21.582;2022-07-19T19:39:16;15.80;;;9.90;;
51529;SDS011;37613;51.788;21.582;2022-07-19T19:43:18;19.10;;;11.00;;
51529;SDS011;37613;51.788;21.582;2022-07-19T19:47:20;17.90;;;11.30;;
51529;SDS011;37613;51.788;21.582;2022-07-19T19:51:22;17.70;;;11.50;;
51529;SDS011;37613;51.788;21.582;2022-07-19T19:55:24;21.70;;;10.80;;
51529;SDS011;37613;51.788;21.582;2022-07-19T19:59:26;19.10;;;13.20;;
51529;SDS011;37613;51.788;21.582;2022-07-19T20:03:28;18.90;;;11.90;;
51529;SDS011;37613;51.788;21.582;2022-07-19T20:07:30;20.50;;;11.60;;
51529;SDS011;37613;51.788;21.582;2022-07-19T20:11:32;18.40;;;11.90;;
51529;SDS011;37613;51.788;21.582;2022-07-19T20:15:33;25.70;;;13.60;;
51529;SDS011;37613;51.788;21.582;2022-07-19T20:19:35;27.40;;;15.00;;
51529;SDS011;37613;51.788;21.582;2022-07-19T20:23:37;24.10;;;15.10;;
51529;SDS011;37613;51.788;21.582;2022-07-19T20:27:42;27.00;;;15.90;;
51529;SDS011;37613;51.788;21.582;2022-07-19T20:31:44;28.10;;;16.80;;
51529;SDS011;37613;51.788;21.582;2022-07-19T20:35:46;28.20;;;16.60;;
51529;SDS011;37613;51.788;21.582;2022-07-19T20:39:48;30.90;;;16.90;;
51529;SDS011;37613;51.788;21.582;2022-07-19T20:43:50;31.60;;;17.10;;
51529;SDS011;37613;51.788;21.582;2022-07-19T20:51:57;26.70;;;16.60;;
51529;SDS011;37613;51.788;21.582;2022-07-19T20:55:59;29.10;;;16.20;;
51529;SDS011;37613;51.788;21.582;2022-07-19T21:00:00;31.50;;;16.20;;
51529;SDS011;37613;51.788;21.582;2022-07-19T21:04:02;26.70;;;14.90;;
51529;SDS011;37613;51.788;21.582;2022-07-19T21:08:04;25.70;;;14.70;;
51529;SDS011;37613;51.788;21.582;2022-07-19T21:12:06;23.70;;;15.40;;
51529;SDS011;37613;51.788;21.582;2022-07-19T21:26:41;29.70;;;16.90;;
51529;SDS011;37613;51.788;21.582;2022-07-19T21:30:45;32.40;;;17.60;;
51529;SDS011;37613;51.788;21.582;2022-07-19T21:34:47;31.90;;;20.50;;
51529;SDS011;37613;51.788;21.582;2022-07-19T21:38:49;31.50;;;19.70;;
51529;SDS011;37613;51.788;21.582;2022-07-19T21:42:51;35.10;;;20.40;;
51529;SDS011;37613;51.788;21.582;2022-07-19T21:50:55;31.10;;;18.80;;
51529;SDS011;37613;51.788;21.582;2022-07-19T21:54:57;31.30;;;19.50;;
51529;SDS011;37613;51.788;21.582;2022-07-19T21:58:59;38.20;;;20.40;;
51529;SDS011;37613;51.788;21.582;2022-07-19T22:03:01;34.10;;;21.80;;
51529;SDS011;37613;51.788;21.582;2022-07-19T22:07:05;35.10;;;21.90;;
51529;SDS011;37613;51.788;21.582;2022-07-19T22:11:07;38.30;;;22.60;;
51529;SDS011;37613;51.788;21.582;2022-07-19T22:15:09;37.70;;;22.70;;
51529;SDS011;37613;51.788;21.582;2022-07-19T22:19:11;40.90;;;23.00;;
51529;SDS011;37613;51.788;21.582;2022-07-19T22:23:14;39.00;;;23.60;;
51529;SDS011;37613;51.788;21.582;2022-07-19T22:41:56;40.40;;;22.70;;
51529;SDS011;37613;51.788;21.582;2022-07-19T22:45:58;42.60;;;23.20;;
51529;SDS011;37613;51.788;21.582;2022-07-19T22:50:00;38.90;;;23.40;;
51529;SDS011;37613;51.788;21.582;2022-07-19T22:54:02;36.90;;;21.60;;
51529;SDS011;37613;51.788;21.582;2022-07-19T22:58:04;43.20;;;22.40;;
51529;SDS011;37613;51.788;21.582;2022-07-19T23:02:06;32.50;;;19.70;;
51529;SDS011;37613;51.788;21.582;2022-07-19T23:06:08;35.60;;;19.50;;
51529;SDS011;37613;51.788;21.582;2022-07-19T23:10:10;32.80;;;19.20;;
51529;SDS011;37613;51.788;21.582;2022-07-19T23:14:13;32.30;;;17.50;;
51529;SDS011;37613;51.788;21.582;2022-07-19T23:18:15;31.10;;;18.80;;
51529;SDS011;37613;51.788;21.582;2022-07-19T23:22:17;29.60;;;17.80;;
51529;SDS011;37613;51.788;21.582;2022-07-19T23:26:34;26.70;;;16.20;;
51529;SDS011;37613;51.788;21.582;2022-07-19T23:30:36;27.00;;;15.10;;
51529;SDS011;37613;51.788;21.582;2022-07-19T23:34:38;25.00;;;15.90;;
51529;SDS011;37613;51.788;21.582;2022-07-19T23:38:40;24.90;;;14.30;;
51529;SDS011;37613;51.788;21.582;2022-07-19T23:42:44;21.70;;;14.30;;
51529;SDS011;37613;51.788;21.582;2022-07-19T23:46:46;23.90;;;15.30;;
51529;SDS011;37613;51.788;21.582;2022-07-19T23:50:48;24.40;;;13.40;;
51529;SDS011;37613;51.788;21.582;2022-07-19T23:54:53;24.70;;;13.10;;
51529;SDS011;37613;51.788;21.582;2022-07-19T23:58:56;22.80;;;12.70;;
